sensor_id;sensor_type;location;lat;lon;timestamp;P1;durP1;ratioP1;P2;durP2;ratioP2
15102;SDS011;7652;53.584;9.998;2023-02-10T00:02:23;26.27;;;13.87;;
15102;SDS011;7652;53.584;9.998;2023-02-10T00:05:26;30.83;;;13.47;;
15102;SDS011;7652;53.584;9.998;2023-02-10T00:08:29;30.00;;;14.03;;
15102;SDS011;7652;53.584;9.998;2023-02-10T00:11:32;25.00;;;13.90;;
15102;SDS011;7652;53.584;9.998;2023-02-10T00:14:54;29.87;;;14.47;;
15102;SDS011;7652;53.584;9.998;2023-02-10T00:17:57;30.23;;;14.30;;
15102;SDS011;7652;53.584;9.998;2023-02-10T00:21:05;30.67;;;15.10;;
15102;SDS011;7652;53.584;9.998;2023-02-10T00:24:08;31.97;;;14.13;;
15102;SDS011;7652;53.584;9.998;2023-02-10T00:27:11;26.63;;;14.13;;
15102;SDS011;7652;53.584;9.998;2023-02-10T00:30:16;26.67;;;14.03;;
15102;SDS011;7652;53.584;9.998;2023-02-10T00:33:19;32.40;;;14.53;;
15102;SDS011;7652;53.584;9.998;2023-02-10T00:36:22;28.60;;;13.90;;
15102;SDS011;7652;53.584;9.998;2023-02-10T00:39:25;26.03;;;13.77;;
15102;SDS011;7652;53.584;9.998;2023-02-10T00:42:28;25.47;;;13.07;;
15102;SDS011;7652;53.584;9.998;2023-02-10T00:45:33;27.60;;;14.07;;
15102;SDS011;7652;53.584;9.998;2023-02-10T00:48:36;27.70;;;15.17;;
15102;SDS011;7652;53.584;9.998;2023-02-10T00:51:39;21.30;;;12.53;;
15102;SDS011;7652;53.584;9.998;2023-02-10T00:54:42;25.33;;;12.57;;
15102;SDS011;7652;53.584;9.998;2023-02-10T00:57:46;25.77;;;13.10;;
15102;SDS011;7652;53.584;9.998;2023-02-10T01:00:50;27.90;;;13.33;;
15102;SDS011;7652;53.584;9.998;2023-02-10T01:03:53;22.07;;;12.60;;
15102;SDS011;7652;53.584;9.998;2023-02-10T01:06:56;25.97;;;13.73;;
15102;SDS011;7652;53.584;9.998;2023-02-10T01:09:59;30.97;;;13.57;;
15102;SDS011;7652;53.584;9.998;2023-02-10T01:13:02;28.50;;;13.20;;
15102;SDS011;7652;53.584;9.998;2023-02-10T01:16:08;24.17;;;11.73;;
15102;SDS011;7652;53.584;9.998;2023-02-10T01:19:14;26.80;;;12.50;;
15102;SDS011;7652;53.584;9.998;2023-02-10T01:22:17;25.27;;;11.50;;
15102;SDS011;7652;53.584;9.998;2023-02-10T01:25:20;23.67;;;12.77;;
15102;SDS011;7652;53.584;9.998;2023-02-10T01:28:23;26.27;;;13.23;;
15102;SDS011;7652;53.584;9.998;2023-02-10T01:31:27;30.17;;;13.50;;
15102;SDS011;7652;53.584;9.998;2023-02-10T01:34:31;23.27;;;11.87;;
15102;SDS011;7652;53.584;9.998;2023-02-10T01:37:34;25.23;;;12.43;;
15102;SDS011;7652;53.584;9.998;2023-02-10T01:40:39;27.33;;;11.67;;
15102;SDS011;7652;53.584;9.998;2023-02-10T01:43:55;24.50;;;12.70;;
15102;SDS011;7652;53.584;9.998;2023-02-10T01:47:01;23.90;;;12.23;;
15102;SDS011;7652;53.584;9.998;2023-02-10T01:50:04;28.30;;;12.43;;
15102;SDS011;7652;53.584;9.998;2023-02-10T01:53:08;21.77;;;11.67;;
15102;SDS011;7652;53.584;9.998;2023-02-10T01:56:12;22.60;;;11.77;;
15102;SDS011;7652;53.584;9.998;2023-02-10T01:59:17;25.23;;;11.83;;
15102;SDS011;7652;53.584;9.998;2023-02-10T02:02:24;22.10;;;11.30;;
15102;SDS011;7652;53.584;9.998;2023-02-10T02:05:28;19.93;;;11.30;;
15102;SDS011;7652;53.584;9.998;2023-02-10T02:08:33;22.50;;;11.20;;
15102;SDS011;7652;53.584;9.998;2023-02-10T02:11:38;22.03;;;12.07;;
15102;SDS011;7652;53.584;9.998;2023-02-10T02:14:48;19.03;;;10.97;;
15102;SDS011;7652;53.584;9.998;2023-02-10T02:18:02;23.03;;;11.37;;
15102;SDS011;7652;53.584;9.998;2023-02-10T02:21:20;23.50;;;10.97;;
15102;SDS011;7652;53.584;9.998;2023-02-10T02:24:42;24.80;;;11.07;;
15102;SDS011;7652;53.584;9.998;2023-02-10T02:28:08;19.57;;;10.73;;
15102;SDS011;7652;53.584;9.998;2023-02-10T02:31:33;21.97;;;11.23;;
15102;SDS011;7652;53.584;9.998;2023-02-10T02:34:45;25.07;;;11.13;;
15102;SDS011;7652;53.584;9.998;2023-02-10T02:37:52;21.90;;;10.90;;
15102;SDS011;7652;53.584;9.998;2023-02-10T02:40:56;25.17;;;10.97;;
15102;SDS011;7652;53.584;9.998;2023-02-10T02:44:00;23.17;;;10.87;;
15102;SDS011;7652;53.584;9.998;2023-02-10T02:47:07;20.33;;;10.63;;
15102;SDS011;7652;53.584;9.998;2023-02-10T02:50:19;18.43;;;10.23;;
15102;SDS011;7652;53.584;9.998;2023-02-10T02:53:27;23.43;;;10.73;;
15102;SDS011;7652;53.584;9.998;2023-02-10T02:56:38;24.27;;;11.37;;
15102;SDS011;7652;53.584;9.998;2023-02-10T02:59:46;19.07;;;10.87;;
15102;SDS011;7652;53.584;9.998;2023-02-10T03:02:54;20.40;;;11.07;;
15102;SDS011;7652;53.584;9.998;2023-02-10T03:05:58;27.50;;;10.93;;
15102;SDS011;7652;53.584;9.998;2023-02-10T03:09:02;21.37;;;10.87;;
15102;SDS011;7652;53.584;9.998;2023-02-10T03:12:05;19.70;;;11.27;;
15102;SDS011;7652;53.584;9.998;2023-02-10T03:15:09;22.73;;;11.07;;
15102;SDS011;7652;53.584;9.998;2023-02-10T03:18:14;22.53;;;10.70;;
15102;SDS011;7652;53.584;9.998;2023-02-10T03:21:17;20.13;;;10.90;;
15102;SDS011;7652;53.584;9.998;2023-02-10T03:24:20;21.40;;;10.33;;
15102;SDS011;7652;53.584;9.998;2023-02-10T03:27:23;20.40;;;11.13;;
15102;SDS011;7652;53.584;9.998;2023-02-10T03:30:26;22.63;;;11.20;;
15102;SDS011;7652;53.584;9.998;2023-02-10T03:33:30;27.87;;;12.03;;
15102;SDS011;7652;53.584;9.998;2023-02-10T03:36:34;24.40;;;11.07;;
15102;SDS011;7652;53.584;9.998;2023-02-10T03:39:37;24.33;;;11.53;;
15102;SDS011;7652;53.584;9.998;2023-02-10T03:42:40;25.87;;;11.40;;
15102;SDS011;7652;53.584;9.998;2023-02-10T03:45:43;21.23;;;11.17;;
15102;SDS011;7652;53.584;9.998;2023-02-10T03:48:47;22.03;;;12.20;;
15102;SDS011;7652;53.584;9.998;2023-02-10T03:51:50;21.93;;;10.67;;
15102;SDS011;7652;53.584;9.998;2023-02-10T03:54:53;23.30;;;11.57;;
15102;SDS011;7652;53.584;9.998;2023-02-10T03:57:56;22.70;;;11.60;;
15102;SDS011;7652;53.584;9.998;2023-02-10T04:00:59;22.33;;;11.80;;
15102;SDS011;7652;53.584;9.998;2023-02-10T04:04:10;21.07;;;11.77;;
15102;SDS011;7652;53.584;9.998;2023-02-10T04:07:13;25.80;;;12.70;;
15102;SDS011;7652;53.584;9.998;2023-02-10T04:10:17;22.30;;;11.10;;
15102;SDS011;7652;53.584;9.998;2023-02-10T04:13:21;23.93;;;12.33;;
15102;SDS011;7652;53.584;9.998;2023-02-10T04:16:24;21.77;;;12.87;;
15102;SDS011;7652;53.584;9.998;2023-02-10T04:19:30;25.50;;;13.33;;
15102;SDS011;7652;53.584;9.998;2023-02-10T04:22:33;23.70;;;12.33;;
15102;SDS011;7652;53.584;9.998;2023-02-10T04:25:36;24.00;;;12.07;;
15102;SDS011;7652;53.584;9.998;2023-02-10T04:28:39;23.80;;;12.10;;
15102;SDS011;7652;53.584;9.998;2023-02-10T04:31:42;22.43;;;11.73;;
15102;SDS011;7652;53.584;9.998;2023-02-10T04:34:46;24.67;;;13.10;;
15102;SDS011;7652;53.584;9.998;2023-02-10T04:37:49;25.60;;;13.10;;
15102;SDS011;7652;53.584;9.998;2023-02-10T04:40:52;23.73;;;12.73;;
15102;SDS011;7652;53.584;9.998;2023-02-10T04:43:55;32.57;;;12.80;;
15102;SDS011;7652;53.584;9.998;2023-02-10T04:46:58;25.83;;;13.13;;
15102;SDS011;7652;53.584;9.998;2023-02-10T04:50:03;22.07;;;12.03;;
15102;SDS011;7652;53.584;9.998;2023-02-10T04:53:06;27.20;;;12.00;;
15102;SDS011;7652;53.584;9.998;2023-02-10T04:56:09;29.67;;;12.03;;
15102;SDS011;7652;53.584;9.998;2023-02-10T04:59:12;29.63;;;12.90;;
15102;SDS011;7652;53.584;9.998;2023-02-10T05:02:15;23.77;;;11.93;;
15102;SDS011;7652;53.584;9.998;2023-02-10T05:05:20;21.63;;;11.23;;
15102;SDS011;7652;53.584;9.998;2023-02-10T05:08:25;26.20;;;12.37;;
15102;SDS011;7652;53.584;9.998;2023-02-10T05:11:28;26.90;;;12.67;;
15102;SDS011;7652;53.584;9.998;2023-02-10T05:14:31;24.77;;;11.60;;
15102;SDS011;7652;53.584;9.998;2023-02-10T05:17:34;17.97;;;10.83;;
15102;SDS011;7652;53.584;9.998;2023-02-10T05:20:38;20.70;;;11.20;;
15102;SDS011;7652;53.584;9.998;2023-02-10T05:23:41;19.60;;;12.23;;
15102;SDS011;7652;53.584;9.998;2023-02-10T05:26:44;20.67;;;11.43;;
15102;SDS011;7652;53.584;9.998;2023-02-10T05:29:47;24.73;;;12.00;;
15102;SDS011;7652;53.584;9.998;2023-02-10T05:32:50;23.67;;;11.10;;
15102;SDS011;7652;53.584;9.998;2023-02-10T05:35:54;19.13;;;11.20;;
15102;SDS011;7652;53.584;9.998;2023-02-10T05:38:57;19.73;;;11.23;;
15102;SDS011;7652;53.584;9.998;2023-02-10T05:42:18;23.73;;;11.03;;
15102;SDS011;7652;53.584;9.998;2023-02-10T05:45:21;26.77;;;11.87;;
15102;SDS011;7652;53.584;9.998;2023-02-10T05:48:24;19.63;;;10.83;;
15102;SDS011;7652;53.584;9.998;2023-02-10T05:51:28;22.10;;;11.97;;
15102;SDS011;7652;53.584;9.998;2023-02-10T05:54:31;22.30;;;11.90;;
15102;SDS011;7652;53.584;9.998;2023-02-10T05:57:34;20.57;;;10.40;;
15102;SDS011;7652;53.584;9.998;2023-02-10T06:00:37;24.60;;;11.37;;
15102;SDS011;7652;53.584;9.998;2023-02-10T06:03:40;20.80;;;11.17;;
15102;SDS011;7652;53.584;9.998;2023-02-10T06:06:45;21.07;;;11.60;;
15102;SDS011;7652;53.584;9.998;2023-02-10T06:09:48;26.67;;;11.77;;
15102;SDS011;7652;53.584;9.998;2023-02-10T06:12:51;28.03;;;11.67;;
15102;SDS011;7652;53.584;9.998;2023-02-10T06:15:55;15.27;;;9.57;;
15102;SDS011;7652;53.584;9.998;2023-02-10T06:18:58;27.03;;;11.60;;
15102;SDS011;7652;53.584;9.998;2023-02-10T06:22:02;18.93;;;10.33;;
15102;SDS011;7652;53.584;9.998;2023-02-10T06:25:06;26.57;;;11.47;;
15102;SDS011;7652;53.584;9.998;2023-02-10T06:28:10;22.10;;;11.87;;
15102;SDS011;7652;53.584;9.998;2023-02-10T06:31:13;28.63;;;11.73;;
15102;SDS011;7652;53.584;9.998;2023-02-10T06:34:16;22.50;;;11.80;;
15102;SDS011;7652;53.584;9.998;2023-02-10T06:37:21;19.97;;;10.93;;
15102;SDS011;7652;53.584;9.998;2023-02-10T06:40:24;21.10;;;11.13;;
15102;SDS011;7652;53.584;9.998;2023-02-10T06:43:27;22.80;;;11.17;;
15102;SDS011;7652;53.584;9.998;2023-02-10T06:46:30;20.13;;;11.50;;
15102;SDS011;7652;53.584;9.998;2023-02-10T06:49:33;19.07;;;11.20;;
15102;SDS011;7652;53.584;9.998;2023-02-10T06:52:37;22.47;;;11.70;;
15102;SDS011;7652;53.584;9.998;2023-02-10T06:55:40;21.63;;;12.13;;
15102;SDS011;7652;53.584;9.998;2023-02-10T06:58:43;18.57;;;10.50;;
15102;SDS011;7652;53.584;9.998;2023-02-10T07:01:46;21.80;;;12.17;;
15102;SDS011;7652;53.584;9.998;2023-02-10T07:04:50;23.27;;;11.23;;
15102;SDS011;7652;53.584;9.998;2023-02-10T07:07:54;22.33;;;11.40;;
15102;SDS011;7652;53.584;9.998;2023-02-10T07:11:00;21.30;;;12.23;;
15102;SDS011;7652;53.584;9.998;2023-02-10T07:14:03;25.07;;;13.30;;
15102;SDS011;7652;53.584;9.998;2023-02-10T07:17:06;21.00;;;11.83;;
15102;SDS011;7652;53.584;9.998;2023-02-10T07:20:09;26.27;;;11.27;;
15102;SDS011;7652;53.584;9.998;2023-02-10T07:23:14;22.33;;;11.30;;
15102;SDS011;7652;53.584;9.998;2023-02-10T07:26:31;26.17;;;11.30;;
15102;SDS011;7652;53.584;9.998;2023-02-10T07:29:34;24.57;;;11.37;;
15102;SDS011;7652;53.584;9.998;2023-02-10T07:32:37;26.53;;;12.47;;
15102;SDS011;7652;53.584;9.998;2023-02-10T07:35:40;25.20;;;12.10;;
15102;SDS011;7652;53.584;9.998;2023-02-10T07:38:44;25.93;;;12.40;;
15102;SDS011;7652;53.584;9.998;2023-02-10T07:41:47;27.70;;;12.70;;
15102;SDS011;7652;53.584;9.998;2023-02-10T07:44:50;23.27;;;11.60;;
15102;SDS011;7652;53.584;9.998;2023-02-10T07:47:53;23.50;;;11.77;;
15102;SDS011;7652;53.584;9.998;2023-02-10T07:50:56;28.40;;;12.10;;
15102;SDS011;7652;53.584;9.998;2023-02-10T07:54:00;22.73;;;11.87;;
15102;SDS011;7652;53.584;9.998;2023-02-10T07:57:03;24.57;;;13.00;;
15102;SDS011;7652;53.584;9.998;2023-02-10T08:00:07;23.83;;;10.67;;
15102;SDS011;7652;53.584;9.998;2023-02-10T08:03:13;26.23;;;12.43;;
15102;SDS011;7652;53.584;9.998;2023-02-10T08:06:18;21.23;;;12.23;;
15102;SDS011;7652;53.584;9.998;2023-02-10T08:09:23;22.50;;;12.20;;
15102;SDS011;7652;53.584;9.998;2023-02-10T08:12:26;30.77;;;11.67;;
15102;SDS011;7652;53.584;9.998;2023-02-10T08:15:29;26.10;;;11.87;;
15102;SDS011;7652;53.584;9.998;2023-02-10T08:18:32;24.30;;;12.10;;
15102;SDS011;7652;53.584;9.998;2023-02-10T08:21:35;24.37;;;11.87;;
15102;SDS011;7652;53.584;9.998;2023-02-10T08:24:40;23.97;;;11.87;;
15102;SDS011;7652;53.584;9.998;2023-02-10T08:27:43;29.20;;;11.90;;
15102;SDS011;7652;53.584;9.998;2023-02-10T08:30:46;22.87;;;11.60;;
15102;SDS011;7652;53.584;9.998;2023-02-10T08:33:50;25.73;;;12.03;;
15102;SDS011;7652;53.584;9.998;2023-02-10T08:36:53;25.00;;;11.30;;
15102;SDS011;7652;53.584;9.998;2023-02-10T08:39:57;24.73;;;12.03;;
15102;SDS011;7652;53.584;9.998;2023-02-10T08:43:01;19.37;;;11.03;;
15102;SDS011;7652;53.584;9.998;2023-02-10T08:46:04;21.50;;;11.23;;
15102;SDS011;7652;53.584;9.998;2023-02-10T08:49:07;27.83;;;11.93;;
15102;SDS011;7652;53.584;9.998;2023-02-10T08:52:10;28.00;;;11.93;;
15102;SDS011;7652;53.584;9.998;2023-02-10T08:55:15;26.70;;;11.20;;
15102;SDS011;7652;53.584;9.998;2023-02-10T08:58:18;25.70;;;11.53;;
15102;SDS011;7652;53.584;9.998;2023-02-10T09:01:22;25.83;;;11.23;;
15102;SDS011;7652;53.584;9.998;2023-02-10T09:04:30;26.40;;;11.80;;
15102;SDS011;7652;53.584;9.998;2023-02-10T09:07:33;28.53;;;11.77;;
15102;SDS011;7652;53.584;9.998;2023-02-10T09:10:37;28.20;;;12.60;;
15102;SDS011;7652;53.584;9.998;2023-02-10T09:13:41;26.43;;;12.30;;
15102;SDS011;7652;53.584;9.998;2023-02-10T09:16:44;27.27;;;12.03;;
15102;SDS011;7652;53.584;9.998;2023-02-10T09:19:47;25.50;;;12.03;;
15102;SDS011;7652;53.584;9.998;2023-02-10T09:22:50;25.80;;;12.13;;
15102;SDS011;7652;53.584;9.998;2023-02-10T09:25:55;21.90;;;11.00;;
15102;SDS011;7652;53.584;9.998;2023-02-10T09:28:58;24.77;;;13.20;;
15102;SDS011;7652;53.584;9.998;2023-02-10T09:32:01;28.20;;;13.17;;
15102;SDS011;7652;53.584;9.998;2023-02-10T09:35:05;20.97;;;11.23;;
15102;SDS011;7652;53.584;9.998;2023-02-10T09:38:08;22.67;;;12.67;;
15102;SDS011;7652;53.584;9.998;2023-02-10T09:41:15;28.23;;;13.03;;
15102;SDS011;7652;53.584;9.998;2023-02-10T09:44:28;32.40;;;13.97;;
15102;SDS011;7652;53.584;9.998;2023-02-10T09:47:37;23.67;;;11.93;;
15102;SDS011;7652;53.584;9.998;2023-02-10T09:50:50;26.23;;;13.97;;
15102;SDS011;7652;53.584;9.998;2023-02-10T09:54:01;24.57;;;12.40;;
15102;SDS011;7652;53.584;9.998;2023-02-10T09:57:11;24.77;;;12.27;;
15102;SDS011;7652;53.584;9.998;2023-02-10T10:00:18;29.13;;;13.50;;
15102;SDS011;7652;53.584;9.998;2023-02-10T10:03:27;31.20;;;13.23;;
15102;SDS011;7652;53.584;9.998;2023-02-10T10:06:38;23.40;;;11.87;;
15102;SDS011;7652;53.584;9.998;2023-02-10T10:09:43;23.40;;;12.77;;
15102;SDS011;7652;53.584;9.998;2023-02-10T10:12:51;21.37;;;12.37;;
15102;SDS011;7652;53.584;9.998;2023-02-10T10:16:00;26.47;;;13.00;;
15102;SDS011;7652;53.584;9.998;2023-02-10T10:19:17;23.77;;;12.57;;
15102;SDS011;7652;53.584;9.998;2023-02-10T10:22:33;22.23;;;12.63;;
15102;SDS011;7652;53.584;9.998;2023-02-10T10:25:54;24.50;;;12.47;;
15102;SDS011;7652;53.584;9.998;2023-02-10T10:29:09;27.57;;;12.17;;
15102;SDS011;7652;53.584;9.998;2023-02-10T10:32:26;22.33;;;12.37;;
15102;SDS011;7652;53.584;9.998;2023-02-10T10:35:38;27.10;;;13.33;;
15102;SDS011;7652;53.584;9.998;2023-02-10T10:38:46;26.97;;;13.07;;
15102;SDS011;7652;53.584;9.998;2023-02-10T10:41:52;27.93;;;12.57;;
15102;SDS011;7652;53.584;9.998;2023-02-10T10:44:59;23.40;;;11.97;;
15102;SDS011;7652;53.584;9.998;2023-02-10T10:48:08;19.77;;;12.47;;
15102;SDS011;7652;53.584;9.998;2023-02-10T10:51:15;25.47;;;12.43;;
15102;SDS011;7652;53.584;9.998;2023-02-10T10:54:19;24.93;;;12.80;;
15102;SDS011;7652;53.584;9.998;2023-02-10T10:57:25;28.93;;;12.67;;
15102;SDS011;7652;53.584;9.998;2023-02-10T11:00:31;23.47;;;12.03;;
15102;SDS011;7652;53.584;9.998;2023-02-10T11:03:34;21.97;;;12.47;;
15102;SDS011;7652;53.584;9.998;2023-02-10T11:06:37;20.43;;;11.37;;
15102;SDS011;7652;53.584;9.998;2023-02-10T11:09:41;19.90;;;10.93;;
15102;SDS011;7652;53.584;9.998;2023-02-10T11:12:52;24.47;;;11.47;;
15102;SDS011;7652;53.584;9.998;2023-02-10T11:16:01;18.93;;;11.43;;
15102;SDS011;7652;53.584;9.998;2023-02-10T11:19:10;20.77;;;11.33;;
15102;SDS011;7652;53.584;9.998;2023-02-10T11:22:20;21.00;;;11.40;;
15102;SDS011;7652;53.584;9.998;2023-02-10T11:25:25;21.17;;;11.33;;
15102;SDS011;7652;53.584;9.998;2023-02-10T11:28:31;22.40;;;11.20;;
15102;SDS011;7652;53.584;9.998;2023-02-10T11:31:38;21.37;;;11.07;;
15102;SDS011;7652;53.584;9.998;2023-02-10T11:34:43;19.23;;;10.90;;
15102;SDS011;7652;53.584;9.998;2023-02-10T11:37:51;17.67;;;10.07;;
15102;SDS011;7652;53.584;9.998;2023-02-10T11:40:57;22.63;;;10.87;;
15102;SDS011;7652;53.584;9.998;2023-02-10T11:44:02;20.07;;;11.63;;
15102;SDS011;7652;53.584;9.998;2023-02-10T11:47:24;17.60;;;10.83;;
15102;SDS011;7652;53.584;9.998;2023-02-10T11:50:29;20.00;;;10.67;;
15102;SDS011;7652;53.584;9.998;2023-02-10T11:53:36;25.00;;;9.57;;
15102;SDS011;7652;53.584;9.998;2023-02-10T11:56:42;16.67;;;10.10;;
15102;SDS011;7652;53.584;9.998;2023-02-10T12:00:16;17.70;;;8.67;;
15102;SDS011;7652;53.584;9.998;2023-02-10T12:03:35;16.13;;;8.20;;
15102;SDS011;7652;53.584;9.998;2023-02-10T12:06:51;15.23;;;8.23;;
15102;SDS011;7652;53.584;9.998;2023-02-10T12:10:02;14.00;;;7.83;;
15102;SDS011;7652;53.584;9.998;2023-02-10T12:13:18;17.80;;;7.57;;
15102;SDS011;7652;53.584;9.998;2023-02-10T12:16:33;15.20;;;7.53;;
15102;SDS011;7652;53.584;9.998;2023-02-10T12:19:47;15.37;;;6.60;;
15102;SDS011;7652;53.584;9.998;2023-02-10T12:23:26;18.83;;;7.57;;
15102;SDS011;7652;53.584;9.998;2023-02-10T12:26:41;15.57;;;6.33;;
15102;SDS011;7652;53.584;9.998;2023-02-10T12:29:52;15.73;;;6.93;;
15102;SDS011;7652;53.584;9.998;2023-02-10T12:33:04;12.67;;;6.30;;
15102;SDS011;7652;53.584;9.998;2023-02-10T12:36:23;10.27;;;5.43;;
15102;SDS011;7652;53.584;9.998;2023-02-10T12:39:33;15.97;;;5.87;;
15102;SDS011;7652;53.584;9.998;2023-02-10T12:42:44;12.27;;;5.87;;
15102;SDS011;7652;53.584;9.998;2023-02-10T12:45:54;12.53;;;5.13;;
15102;SDS011;7652;53.584;9.998;2023-02-10T12:49:14;12.67;;;5.33;;
15102;SDS011;7652;53.584;9.998;2023-02-10T12:52:28;9.93;;;5.60;;
15102;SDS011;7652;53.584;9.998;2023-02-10T12:55:39;15.53;;;5.77;;
15102;SDS011;7652;53.584;9.998;2023-02-10T12:58:53;10.43;;;5.67;;
15102;SDS011;7652;53.584;9.998;2023-02-10T13:02:02;14.20;;;5.63;;
15102;SDS011;7652;53.584;9.998;2023-02-10T13:05:09;8.03;;;4.87;;
15102;SDS011;7652;53.584;9.998;2023-02-10T13:08:19;16.17;;;6.13;;
15102;SDS011;7652;53.584;9.998;2023-02-10T13:11:30;12.70;;;5.43;;
15102;SDS011;7652;53.584;9.998;2023-02-10T13:14:38;10.80;;;5.07;;
15102;SDS011;7652;53.584;9.998;2023-02-10T13:17:43;13.77;;;6.03;;
15102;SDS011;7652;53.584;9.998;2023-02-10T13:20:49;9.70;;;5.10;;
15102;SDS011;7652;53.584;9.998;2023-02-10T13:23:59;11.20;;;5.60;;
15102;SDS011;7652;53.584;9.998;2023-02-10T13:27:12;13.60;;;5.97;;
15102;SDS011;7652;53.584;9.998;2023-02-10T13:30:37;11.53;;;5.13;;
15102;SDS011;7652;53.584;9.998;2023-02-10T13:33:55;14.10;;;5.37;;
15102;SDS011;7652;53.584;9.998;2023-02-10T13:37:04;12.87;;;5.37;;
15102;SDS011;7652;53.584;9.998;2023-02-10T13:40:16;13.83;;;5.20;;
15102;SDS011;7652;53.584;9.998;2023-02-10T13:43:24;13.97;;;5.17;;
15102;SDS011;7652;53.584;9.998;2023-02-10T13:46:29;10.97;;;4.80;;
15102;SDS011;7652;53.584;9.998;2023-02-10T13:49:33;11.90;;;5.70;;
15102;SDS011;7652;53.584;9.998;2023-02-10T13:52:47;14.13;;;5.57;;
15102;SDS011;7652;53.584;9.998;2023-02-10T13:56:01;11.43;;;4.80;;
15102;SDS011;7652;53.584;9.998;2023-02-10T14:02:28;17.67;;;5.20;;
15102;SDS011;7652;53.584;9.998;2023-02-10T14:05:32;9.97;;;4.60;;
15102;SDS011;7652;53.584;9.998;2023-02-10T14:08:37;10.40;;;4.87;;
15102;SDS011;7652;53.584;9.998;2023-02-10T14:11:59;11.93;;;5.40;;
15102;SDS011;7652;53.584;9.998;2023-02-10T14:15:20;10.03;;;4.93;;
15102;SDS011;7652;53.584;9.998;2023-02-10T14:18:26;9.20;;;4.90;;
15102;SDS011;7652;53.584;9.998;2023-02-10T14:21:37;11.57;;;5.23;;
15102;SDS011;7652;53.584;9.998;2023-02-10T14:24:42;12.90;;;5.67;;
15102;SDS011;7652;53.584;9.998;2023-02-10T14:27:53;11.37;;;6.47;;
15102;SDS011;7652;53.584;9.998;2023-02-10T14:30:57;9.90;;;5.90;;
15102;SDS011;7652;53.584;9.998;2023-02-10T14:34:03;12.23;;;5.90;;
15102;SDS011;7652;53.584;9.998;2023-02-10T14:37:14;11.90;;;5.43;;
15102;SDS011;7652;53.584;9.998;2023-02-10T14:40:20;10.20;;;5.30;;
15102;SDS011;7652;53.584;9.998;2023-02-10T14:43:26;14.07;;;6.20;;
15102;SDS011;7652;53.584;9.998;2023-02-10T14:46:31;11.77;;;7.10;;
15102;SDS011;7652;53.584;9.998;2023-02-10T14:49:37;14.27;;;6.80;;
15102;SDS011;7652;53.584;9.998;2023-02-10T14:52:46;9.40;;;5.97;;
15102;SDS011;7652;53.584;9.998;2023-02-10T14:55:53;13.70;;;5.97;;
15102;SDS011;7652;53.584;9.998;2023-02-10T14:58:58;11.40;;;6.43;;
15102;SDS011;7652;53.584;9.998;2023-02-10T15:02:04;16.50;;;6.37;;
15102;SDS011;7652;53.584;9.998;2023-02-10T15:05:18;12.87;;;5.70;;
15102;SDS011;7652;53.584;9.998;2023-02-10T15:08:23;14.60;;;6.53;;
15102;SDS011;7652;53.584;9.998;2023-02-10T15:11:32;12.93;;;5.77;;
15102;SDS011;7652;53.584;9.998;2023-02-10T15:15:00;17.57;;;6.07;;
15102;SDS011;7652;53.584;9.998;2023-02-10T15:18:07;15.50;;;6.87;;
15102;SDS011;7652;53.584;9.998;2023-02-10T15:21:27;17.27;;;6.47;;
15102;SDS011;7652;53.584;9.998;2023-02-10T15:24:34;15.97;;;6.73;;
15102;SDS011;7652;53.584;9.998;2023-02-10T15:27:38;12.57;;;6.20;;
15102;SDS011;7652;53.584;9.998;2023-02-10T15:30:48;12.63;;;6.63;;
15102;SDS011;7652;53.584;9.998;2023-02-10T15:33:58;12.73;;;6.83;;
15102;SDS011;7652;53.584;9.998;2023-02-10T15:37:02;12.37;;;6.73;;
15102;SDS011;7652;53.584;9.998;2023-02-10T15:40:15;12.93;;;7.30;;
15102;SDS011;7652;53.584;9.998;2023-02-10T15:43:24;14.47;;;7.53;;
15102;SDS011;7652;53.584;9.998;2023-02-10T15:46:30;13.37;;;7.27;;
15102;SDS011;7652;53.584;9.998;2023-02-10T15:49:34;15.50;;;7.50;;
15102;SDS011;7652;53.584;9.998;2023-02-10T15:52:38;14.53;;;8.20;;
15102;SDS011;7652;53.584;9.998;2023-02-10T15:55:43;15.20;;;7.63;;
15102;SDS011;7652;53.584;9.998;2023-02-10T15:58:46;12.83;;;8.27;;
15102;SDS011;7652;53.584;9.998;2023-02-10T16:01:50;15.60;;;8.07;;
15102;SDS011;7652;53.584;9.998;2023-02-10T16:04:53;12.83;;;8.37;;
15102;SDS011;7652;53.584;9.998;2023-02-10T16:07:59;17.13;;;8.97;;
15102;SDS011;7652;53.584;9.998;2023-02-10T16:11:05;16.90;;;8.90;;
15102;SDS011;7652;53.584;9.998;2023-02-10T16:14:08;15.50;;;8.53;;
15102;SDS011;7652;53.584;9.998;2023-02-10T16:17:15;18.60;;;9.20;;
15102;SDS011;7652;53.584;9.998;2023-02-10T16:20:23;17.77;;;10.10;;
15102;SDS011;7652;53.584;9.998;2023-02-10T16:23:27;17.37;;;8.83;;
15102;SDS011;7652;53.584;9.998;2023-02-10T16:26:31;16.97;;;9.17;;
15102;SDS011;7652;53.584;9.998;2023-02-10T16:29:34;16.73;;;8.97;;
15102;SDS011;7652;53.584;9.998;2023-02-10T16:32:38;15.93;;;8.27;;
15102;SDS011;7652;53.584;9.998;2023-02-10T16:35:41;22.00;;;9.83;;
15102;SDS011;7652;53.584;9.998;2023-02-10T16:38:44;17.10;;;9.93;;
15102;SDS011;7652;53.584;9.998;2023-02-10T16:41:52;15.87;;;10.17;;
15102;SDS011;7652;53.584;9.998;2023-02-10T16:44:55;14.03;;;9.30;;
15102;SDS011;7652;53.584;9.998;2023-02-10T16:48:00;20.13;;;10.07;;
15102;SDS011;7652;53.584;9.998;2023-02-10T16:51:04;16.97;;;9.87;;
15102;SDS011;7652;53.584;9.998;2023-02-10T16:54:07;16.40;;;9.70;;
15102;SDS011;7652;53.584;9.998;2023-02-10T16:57:11;20.03;;;9.87;;
15102;SDS011;7652;53.584;9.998;2023-02-10T17:00:14;16.87;;;9.03;;
15102;SDS011;7652;53.584;9.998;2023-02-10T17:03:22;21.77;;;10.80;;
15102;SDS011;7652;53.584;9.998;2023-02-10T17:06:26;20.37;;;10.47;;
15102;SDS011;7652;53.584;9.998;2023-02-10T17:09:31;20.10;;;10.70;;
15102;SDS011;7652;53.584;9.998;2023-02-10T17:12:34;19.03;;;10.23;;
15102;SDS011;7652;53.584;9.998;2023-02-10T17:15:37;18.10;;;9.63;;
15102;SDS011;7652;53.584;9.998;2023-02-10T17:18:41;19.10;;;9.67;;
15102;SDS011;7652;53.584;9.998;2023-02-10T17:21:44;16.27;;;8.83;;
15102;SDS011;7652;53.584;9.998;2023-02-10T17:24:47;17.03;;;9.87;;
15102;SDS011;7652;53.584;9.998;2023-02-10T17:27:51;15.70;;;9.70;;
15102;SDS011;7652;53.584;9.998;2023-02-10T17:30:54;15.57;;;8.70;;
15102;SDS011;7652;53.584;9.998;2023-02-10T17:33:59;17.73;;;10.03;;
15102;SDS011;7652;53.584;9.998;2023-02-10T17:37:02;19.73;;;10.30;;
15102;SDS011;7652;53.584;9.998;2023-02-10T17:40:07;17.23;;;9.80;;
15102;SDS011;7652;53.584;9.998;2023-02-10T17:43:28;16.73;;;9.13;;
15102;SDS011;7652;53.584;9.998;2023-02-10T17:46:31;15.97;;;9.50;;
15102;SDS011;7652;53.584;9.998;2023-02-10T17:49:35;15.67;;;9.07;;
15102;SDS011;7652;53.584;9.998;2023-02-10T17:52:38;19.40;;;10.00;;
15102;SDS011;7652;53.584;9.998;2023-02-10T17:55:41;12.63;;;8.70;;
15102;SDS011;7652;53.584;9.998;2023-02-10T17:58:44;18.47;;;9.40;;
15102;SDS011;7652;53.584;9.998;2023-02-10T18:01:48;14.60;;;9.50;;
15102;SDS011;7652;53.584;9.998;2023-02-10T18:04:58;15.33;;;9.57;;
15102;SDS011;7652;53.584;9.998;2023-02-10T18:08:01;18.53;;;10.23;;
15102;SDS011;7652;53.584;9.998;2023-02-10T18:11:03;16.97;;;9.73;;
15102;SDS011;7652;53.584;9.998;2023-02-10T18:14:06;16.07;;;9.53;;
15102;SDS011;7652;53.584;9.998;2023-02-10T18:17:09;17.33;;;9.23;;
15102;SDS011;7652;53.584;9.998;2023-02-10T18:20:14;20.23;;;10.07;;
15102;SDS011;7652;53.584;9.998;2023-02-10T18:23:17;18.63;;;8.80;;
15102;SDS011;7652;53.584;9.998;2023-02-10T18:26:20;15.07;;;9.37;;
15102;SDS011;7652;53.584;9.998;2023-02-10T18:29:23;20.07;;;8.43;;
15102;SDS011;7652;53.584;9.998;2023-02-10T18:32:26;15.70;;;8.67;;
15102;SDS011;7652;53.584;9.998;2023-02-10T18:35:31;17.63;;;8.63;;